Time;durP1;ratioP1;P1;durP2;ratioP2;P2;SDS_P1;SDS_P2;PMS_P1;PMS_P2;Temp;Humidity;BMP_temperature;BMP_pressure;BME280_temperature;BME280_humidity;BME280_pressure;Samples;Min_cycle;Max_cycle;Signal;HPM_P1;HPM_P2
2021/12/10 13:25:15;;;;;;;8.68;3.83;;;7.90;99.90;;;;;;5090106;27;20406;-81
2021/12/10 13:27:43;;;;;;;8.75;4.30;;;8.00;1.00;;;;;;5068068;28;20055;-81
2021/12/10 13:30:21;;;;;;;8.50;4.68;;;8.10;1.00;;;;;;5062622;28;20495;-79
2021/12/10 13:32:48;;;;;;;7.45;4.45;;;7.80;1.00;;;;;;5068499;28;20053;-81
2021/12/10 13:35:15;;;;;;;10.48;4.50;;;7.60;1.00;;;;;;5068612;28;20083;-79
2021/12/10 13:37:42;;;;;;;10.63;4.18;;;7.20;1.00;;;;;;5043827;28;20116;-80
2021/12/10 13:40:09;;;;;;;8.27;3.85;;;7.30;1.00;;;;;;5031928;28;20056;-80
2021/12/10 13:42:35;;;;;;;7.40;3.92;;;7.10;1.00;;;;;;5047936;28;20490;-82
2021/12/10 13:45:02;;;;;;;6.50;4.10;;;7.20;1.00;;;;;;5051555;28;20127;-81
2021/12/10 13:47:42;;;;;;;5.38;3.63;;;7.10;1.00;;;;;;5051716;28;20051;-79
2021/12/10 13:50:16;;;;;;;7.82;4.07;;;7.20;1.00;;;;;;5051965;28;20270;-81
2021/12/10 13:52:49;;;;;;;7.88;4.07;;;7.20;1.00;;;;;;5067393;28;20495;-80
2021/12/10 13:55:29;;;;;;;10.02;4.47;;;7.00;1.00;;;;;;5031738;28;20072;-80
2021/12/10 13:58:11;;;;;;;8.68;4.30;;;6.70;1.00;;;;;;5048419;28;20391;-79
2021/12/10 14:00:42;;;;;;;10.43;6.33;;;6.30;1.00;;;;;;5031909;28;20438;-82
2021/12/10 14:03:08;;;;;;;10.98;6.15;;;6.00;1.00;;;;;;5048245;28;20095;-81
2021/12/10 14:05:43;;;;;;;9.77;5.13;;;5.90;1.00;;;;;;5048276;28;20395;-79
2021/12/10 14:08:17;;;;;;;8.05;5.50;;;5.80;1.00;;;;;;5031632;28;20081;-81
2021/12/10 14:10:51;;;;;;;9.38;5.50;;;5.40;1.00;;;;;;5031503;28;20047;-79
2021/12/10 14:13:32;;;;;;;10.45;6.72;;;5.10;1.00;;;;;;5031389;28;20053;-79
2021/12/10 14:16:06;;;;;;;18.52;10.02;;;4.80;1.00;;;;;;5048225;28;20525;-81
2021/12/10 14:18:41;;;;;;;9.88;6.15;;;4.50;1.00;;;;;;5031403;28;20363;-79
2021/12/10 14:21:14;;;;;;;12.07;6.75;;;4.30;1.00;;;;;;5031758;28;20503;-79
2021/12/10 14:23:54;;;;;;;10.95;6.15;;;4.10;1.00;;;;;;5047600;28;20122;-81
2021/12/10 14:26:24;;;;;;;11.35;6.20;;;3.90;1.00;;;;;;5048242;28;20500;-79
2021/12/10 14:29:01;;;;;;;10.82;5.65;;;3.70;1.00;;;;;;5031342;28;20106;-79
2021/12/10 14:31:43;;;;;;;11.98;6.72;;;3.50;1.00;;;;;;5047864;28;20098;-79
2021/12/10 14:34:20;;;;;;;18.30;7.40;;;3.40;1.00;;;;;;5031193;28;20041;-81
2021/12/10 14:37:06;;;;;;;14.18;7.93;;;3.30;1.00;;;;;;5017663;28;20056;-81
2021/12/10 14:39:32;;;;;;;14.43;7.93;;;3.10;1.00;;;;;;5034355;28;20129;-81
2021/12/10 14:42:08;;;;;;;14.85;8.43;;;2.90;1.00;;;;;;5034326;28;20471;-79
2021/12/10 14:44:35;;;;;;;17.60;11.25;;;2.80;1.00;;;;;;5017811;28;20042;-81
2021/12/10 14:47:19;;;;;;;15.13;9.07;;;2.60;2.80;;;;;;5017635;28;20049;-79
2021/12/10 14:50:06;;;;;;;16.40;9.07;;;2.40;9.60;;;;;;5034134;28;20091;-79
2021/12/10 14:52:38;;;;;;;16.05;10.68;;;2.30;17.70;;;;;;5017883;28;20510;-78
2021/12/10 14:55:22;;;;;;;17.27;9.60;;;2.10;26.40;;;;;;5017962;28;20041;-81
2021/12/10 14:58:11;;;;;;;14.60;8.20;;;2.00;43.40;;;;;;5034017;28;20050;-81
2021/12/10 15:01:09;;;;;;;14.95;10.05;;;1.90;54.80;;;;;;5034152;28;20050;-81
2021/12/10 15:03:53;;;;;;;17.60;9.63;;;1.80;51.40;;;;;;5016251;28;20107;-81
2021/12/10 15:06:20;;;;;;;21.00;10.30;;;1.70;57.20;;;;;;5048844;28;20517;-81
2021/12/10 15:09:07;;;;;;;21.05;10.13;;;1.60;52.80;;;;;;5017333;28;20041;-79
2021/12/10 15:11:53;;;;;;;17.10;10.25;;;1.50;65.30;;;;;;5008558;28;20099;-80
2021/12/10 15:14:31;;;;;;;16.77;10.57;;;1.40;70.40;;;;;;5033486;28;20077;-81
2021/12/10 15:17:11;;;;;;;15.05;10.85;;;1.40;78.50;;;;;;5017106;28;20084;-79
2021/12/10 15:19:42;;;;;;;15.77;10.38;;;1.30;85.00;;;;;;5033555;28;20128;-80
2021/12/10 15:22:10;;;;;;;17.70;10.75;;;1.20;78.30;;;;;;5044962;28;20041;-79
2021/12/10 15:24:55;;;;;;;22.03;10.63;;;1.10;78.40;;;;;;5053118;28;20551;-78
2021/12/10 15:27:26;;;;;;;17.80;10.65;;;1.00;82.90;;;;;;5053526;28;20499;-78
2021/12/10 15:30:07;;;;;;;20.93;10.23;;;0.90;85.10;;;;;;5069896;28;20048;-80
2021/12/10 15:32:43;;;;;;;18.75;10.43;;;0.90;91.90;;;;;;5053129;28;20056;-80
2021/12/10 15:35:12;;;;;;;17.43;10.30;;;0.80;93.50;;;;;;5069879;28;20134;-80
2021/12/10 15:38:06;;;;;;;24.87;11.43;;;0.70;94.10;;;;;;5069930;28;20431;-78
2021/12/10 15:40:32;;;;;;;18.83;12.13;;;0.70;91.70;;;;;;5036069;28;20449;-78
2021/12/10 15:43:04;;;;;;;21.90;14.07;;;0.60;99.90;;;;;;5052722;28;20119;-80
2021/12/10 15:45:34;;;;;;;21.83;11.93;;;0.60;99.90;;;;;;5065588;28;20045;-80
2021/12/10 15:48:01;;;;;;;21.47;13.37;;;0.50;99.90;;;;;;5031976;28;20085;-80
2021/12/10 15:50:33;;;;;;;25.07;12.97;;;0.50;99.90;;;;;;4990210;28;20048;-80
2021/12/10 15:53:06;;;;;;;22.73;13.53;;;0.40;99.90;;;;;;5032816;28;20224;-78
2021/12/10 15:55:35;;;;;;;19.80;12.30;;;0.40;99.90;;;;;;5032696;28;20085;-80
2021/12/10 15:58:02;;;;;;;25.73;14.13;;;0.40;99.90;;;;;;5032700;28;20076;-80
2021/12/10 16:00:32;;;;;;;22.63;12.57;;;0.30;99.90;;;;;;5032527;28;20041;-80
2021/12/10 16:02:59;;;;;;;23.53;14.40;;;0.30;99.90;;;;;;5032339;28;20056;-80
2021/12/10 16:05:26;;;;;;;25.97;14.00;;;0.20;99.90;;;;;;5032515;28;20081;-78
2021/12/10 16:07:56;;;;;;;27.13;13.77;;;0.20;99.90;;;;;;5015419;28;20132;-78
2021/12/10 16:10:26;;;;;;;28.43;13.90;;;0.30;99.90;;;;;;5032800;28;20450;-80
2021/12/10 16:13:00;;;;;;;26.53;15.00;;;0.10;99.90;;;;;;5015942;28;20129;-80
2021/12/10 16:15:30;;;;;;;26.63;13.27;;;0.10;99.90;;;;;;5032412;28;20085;-80
2021/12/10 16:17:57;;;;;;;24.03;13.90;;;0.00;99.90;;;;;;5032231;28;20053;-80
2021/12/10 16:20:39;;;;;;;26.83;14.63;;;0.00;99.90;;;;;;5032056;28;20046;-78
2021/12/10 16:23:11;;;;;;;29.67;14.80;;;0.00;99.90;;;;;;5032075;28;20534;-78
2021/12/10 16:25:38;;;;;;;34.37;17.63;;;0.00;99.90;;;;;;5032261;28;20303;-80
2021/12/10 16:28:06;;;;;;;35.50;22.33;;;-0.10;99.90;;;;;;5015382;28;20056;-78
2021/12/10 16:30:43;;;;;;;33.70;20.63;;;0.00;99.90;;;;;;5015606;28;20049;-80
2021/12/10 16:33:10;;;;;;;30.67;17.10;;;0.00;99.90;;;;;;5031952;28;20057;-78
2021/12/10 16:35:46;;;;;;;30.30;17.27;;;-0.10;99.90;;;;;;5031989;28;20103;-80
2021/12/10 16:38:16;;;;;;;27.70;15.67;;;-0.10;99.90;;;;;;5015630;28;20041;-80
2021/12/10 16:40:48;;;;;;;28.60;15.57;;;-0.10;99.90;;;;;;5032026;28;20053;-80
2021/12/10 16:43:16;;;;;;;28.57;15.13;;;-0.10;99.90;;;;;;5015305;28;20046;-81
2021/12/10 16:45:45;;;;;;;31.17;15.47;;;-0.10;99.90;;;;;;5031935;28;20458;-78
2021/12/10 16:48:24;;;;;;;29.67;15.67;;;-0.10;99.90;;;;;;5015917;28;20454;-78
2021/12/10 16:50:53;;;;;;;27.80;15.37;;;-0.20;99.90;;;;;;5015744;28;20068;-80
2021/12/10 16:53:20;;;;;;;29.00;14.57;;;-0.20;99.90;;;;;;5031614;28;20049;-78
2021/12/10 16:55:52;;;;;;;30.30;14.70;;;-0.20;99.90;;;;;;5031687;28;20046;-78
2021/12/10 16:58:21;;;;;;;25.20;14.33;;;-0.20;99.90;;;;;;4999545;28;20037;-78
2021/12/10 17:00:53;;;;;;;27.47;14.80;;;-0.20;99.90;;;;;;5031826;28;20053;-81
2021/12/10 17:03:24;;;;;;;27.60;15.38;;;-0.30;99.90;;;;;;5031730;28;20514;-81
2021/12/10 17:05:51;;;;;;;29.33;15.27;;;-0.30;99.90;;;;;;5031766;28;20049;-78
2021/12/10 17:08:22;;;;;;;27.17;15.00;;;-0.30;99.90;;;;;;5015114;28;20041;-80
2021/12/10 17:11:10;;;;;;;35.57;16.03;;;-0.40;99.90;;;;;;5031725;28;20522;-78
2021/12/10 17:13:41;;;;;;;27.70;15.47;;;-0.40;99.90;;;;;;5031456;28;20050;-78
2021/12/10 17:16:13;;;;;;;41.57;17.03;;;-0.40;99.90;;;;;;5015114;28;20076;-81
2021/12/10 17:18:41;;;;;;;35.03;17.07;;;-0.50;99.90;;;;;;5031634;28;20049;-78
2021/12/10 17:21:47;;;;;;;34.90;18.13;;;-0.40;99.90;;;;;;5031332;28;20108;-78
2021/12/10 17:24:15;;;;;;;31.53;18.70;;;-0.50;99.90;;;;;;5030944;28;20203;-81
2021/12/10 17:26:43;;;;;;;34.13;17.23;;;-0.60;99.90;;;;;;5014878;28;20123;-80
2021/12/10 17:29:21;;;;;;;40.07;19.30;;;-0.60;99.90;;;;;;5015241;28;20392;-79
2021/12/10 17:31:48;;;;;;;35.87;18.53;;;-0.60;99.90;;;;;;5031350;28;20563;-81
2021/12/10 17:34:18;;;;;;;40.77;18.47;;;-0.70;99.90;;;;;;5015125;28;20042;-78
2021/12/10 17:36:48;;;;;;;36.97;18.50;;;-0.70;99.90;;;;;;5015133;28;20483;-78
2021/12/10 17:39:22;;;;;;;39.30;19.73;;;-0.70;99.90;;;;;;5031115;28;20093;-79
2021/12/10 17:41:50;;;;;;;38.37;19.47;;;-0.80;99.90;;;;;;5031362;28;20046;-80
2021/12/10 17:44:17;;;;;;;38.53;17.67;;;-0.80;99.90;;;;;;5032485;28;20158;-78
2021/12/10 17:46:57;;;;;;;42.00;19.57;;;-0.80;99.90;;;;;;5051111;28;20071;-80
2021/12/10 17:49:34;;;;;;;38.13;18.63;;;-0.80;99.90;;;;;;5050983;28;20045;-79
2021/12/10 17:52:02;;;;;;;41.40;18.90;;;-0.70;99.90;;;;;;5051394;28;20610;-81
2021/12/10 17:54:41;;;;;;;41.77;19.33;;;-0.70;99.90;;;;;;5050879;28;20049;-81
2021/12/10 17:57:11;;;;;;;37.93;18.23;;;-0.70;99.90;;;;;;5051076;28;20047;-81
2021/12/10 17:59:40;;;;;;;41.03;18.97;;;-0.70;99.90;;;;;;5034377;28;20103;-80
2021/12/10 18:02:12;;;;;;;43.17;18.93;;;-0.70;99.90;;;;;;5051023;28;20033;-80
2021/12/10 18:04:45;;;;;;;39.75;19.52;;;-0.70;99.90;;;;;;5067545;28;20513;-79
2021/12/10 18:07:11;;;;;;;47.33;20.37;;;-0.70;99.90;;;;;;5034452;28;20094;-79
2021/12/10 18:09:43;;;;;;;38.10;19.77;;;-0.70;99.90;;;;;;5051271;28;20509;-78
2021/12/10 18:12:19;;;;;;;43.20;20.73;;;-0.70;99.90;;;;;;5055179;28;20511;-78
2021/12/10 18:14:50;;;;;;;45.03;21.00;;;-0.80;99.90;;;;;;5055062;28;20135;-80
2021/12/10 18:17:23;;;;;;;43.23;21.17;;;-0.80;99.90;;;;;;5038026;28;20491;-78
2021/12/10 18:19:57;;;;;;;44.47;23.15;;;-0.90;99.90;;;;;;5054738;28;20075;-79
2021/12/10 18:22:25;;;;;;;52.83;22.50;;;-0.90;99.90;;;;;;5071340;28;20044;-80
2021/12/10 18:24:56;;;;;;;38.03;20.07;;;-0.90;99.90;;;;;;5037743;28;20143;-78
2021/12/10 18:27:24;;;;;;;42.77;21.87;;;-1.00;99.90;;;;;;5054500;28;20053;-78
2021/12/10 18:29:50;;;;;;;50.50;22.03;;;-1.10;99.90;;;;;;5021536;28;20056;-79
2021/12/10 18:32:21;;;;;;;48.10;22.60;;;-1.10;99.90;;;;;;5037505;28;20088;-78
2021/12/10 18:34:50;;;;;;;42.70;19.23;;;-1.10;99.90;;;;;;5054686;28;20498;-79
2021/12/10 18:37:21;;;;;;;36.63;16.80;;;-1.30;99.90;;;;;;5037882;28;20116;-78
2021/12/10 18:40:08;;;;;;;32.47;17.43;;;-1.50;99.90;;;;;;5054561;28;20045;-81
2021/12/10 18:42:37;;;;;;;33.87;15.93;;;-1.70;99.90;;;;;;5054244;28;20052;-78
2021/12/10 18:45:17;;;;;;;35.33;16.50;;;-1.70;99.90;;;;;;5029651;28;20049;-78
2021/12/10 18:47:45;;;;;;;32.50;15.73;;;-1.90;99.90;;;;;;5034136;28;20395;-80
2021/12/10 18:50:29;;;;;;;39.90;17.07;;;-2.00;99.90;;;;;;5034100;28;20042;-78
2021/12/10 18:52:55;;;;;;;34.90;16.60;;;-2.10;99.90;;;;;;5033799;28;20176;-77
2021/12/10 18:55:28;;;;;;;33.00;16.07;;;-2.20;99.90;;;;;;5017770;28;20137;-80
2021/12/10 18:57:55;;;;;;;36.47;16.73;;;-2.20;99.90;;;;;;5033931;28;20049;-78
2021/12/10 19:00:55;;;;;;;43.50;16.87;;;-2.30;99.90;;;;;;5033839;28;20041;-80
2021/12/10 19:03:25;;;;;;;43.07;17.77;;;-2.30;99.90;;;;;;5034649;28;20408;-77
2021/12/10 19:05:58;;;;;;;40.13;17.60;;;-2.40;99.90;;;;;;5034345;28;20042;-78
2021/12/10 19:08:30;;;;;;;43.65;18.67;;;-2.40;99.90;;;;;;5033768;28;20037;-80
2021/12/10 19:11:01;;;;;;;52.13;20.67;;;-2.40;99.90;;;;;;5033715;28;20049;-80
2021/12/10 19:13:42;;;;;;;54.27;21.37;;;-2.40;99.90;;;;;;5033587;28;20042;-78
2021/12/10 19:16:15;;;;;;;61.17;24.33;;;-2.30;99.90;;;;;;5033572;28;20041;-77
2021/12/10 19:18:48;;;;;;;75.55;25.90;;;-2.30;99.90;;;;;;5033580;28;20049;-80
2021/12/10 19:21:23;;;;;;;66.53;26.08;;;-2.30;99.90;;;;;;5033629;28;20085;-80
2021/12/10 19:23:58;;;;;;;78.60;30.33;;;-2.20;99.90;;;;;;5033151;28;20072;-78
2021/12/10 19:26:26;;;;;;;67.97;27.47;;;-2.20;99.90;;;;;;5033391;28;20491;-77
2021/12/10 19:29:00;;;;;;;75.83;27.33;;;-2.10;99.90;;;;;;5017103;28;20085;-78
2021/12/10 19:31:54;;;;;;;75.97;26.80;;;-2.20;99.90;;;;;;5033514;28;20484;-78
2021/12/10 19:34:35;;;;;;;92.43;29.93;;;-2.20;99.90;;;;;;5016808;28;20041;-79
2021/12/10 19:37:07;;;;;;;90.07;30.17;;;-2.30;99.90;;;;;;5033206;28;20120;-80
2021/12/10 19:39:44;;;;;;;97.20;31.38;;;-2.30;99.90;;;;;;5033307;28;20077;-80
2021/12/10 19:42:19;;;;;;;98.07;31.77;;;-2.30;99.90;;;;;;5033082;28;20056;-77
2021/12/10 19:44:50;;;;;;;93.93;32.40;;;-2.20;99.90;;;;;;5033056;28;20037;-79
2021/12/10 19:47:23;;;;;;;109.70;32.83;;;-2.30;99.90;;;;;;5032947;28;20084;-78
2021/12/10 19:49:56;;;;;;;93.47;31.75;;;-2.30;99.90;;;;;;5016648;28;20132;-77
2021/12/10 19:52:28;;;;;;;102.97;32.20;;;-2.20;99.90;;;;;;5033000;28;20132;-79
2021/12/10 19:55:02;;;;;;;93.97;31.33;;;-2.20;99.90;;;;;;5016559;28;20527;-79
2021/12/10 19:57:34;;;;;;;109.03;34.13;;;-2.10;99.90;;;;;;5032788;28;20083;-77
2021/12/10 20:00:27;;;;;;;69.30;24.40;;;-2.10;99.90;;;;;;5033230;28;20361;-79
2021/12/10 20:03:02;;;;;;;84.05;28.58;;;-2.20;99.90;;;;;;5010895;28;20486;-77
2021/12/10 20:05:48;;;;;;;79.03;26.03;;;-2.40;99.90;;;;;;5016216;28;20085;-79
2021/12/10 20:08:21;;;;;;;80.13;27.97;;;-2.50;99.90;;;;;;5016307;28;20496;-79
2021/12/10 20:10:56;;;;;;;;;;;-2.60;99.90;;;;;;5033234;28;20491;-77
2021/12/10 20:13:30;;;;;;;82.07;26.20;;;-2.70;99.90;;;;;;5032408;28;19921;-77
2021/12/10 20:16:11;;;;;;;70.50;26.20;;;-2.70;99.90;;;;;;5032500;28;20045;-77
2021/12/10 20:18:46;;;;;;;83.17;27.03;;;-2.70;99.90;;;;;;5032422;28;20488;-77
2021/12/10 20:21:26;;;;;;;90.63;28.27;;;-2.70;99.90;;;;;;5032500;28;20049;-79
2021/12/10 20:23:55;;;;;;;118.20;31.27;;;-2.70;99.90;;;;;;5032130;28;20396;-77
2021/12/10 20:26:28;;;;;;;140.07;32.60;;;-2.80;99.90;;;;;;5032580;28;20084;-79
2021/12/10 20:28:58;;;;;;;101.47;33.13;;;-2.80;99.90;;;;;;5032220;28;20045;-77
2021/12/10 20:31:46;;;;;;;101.57;31.73;;;-2.90;99.90;;;;;;5032173;28;20049;-77
2021/12/10 20:34:21;;;;;;;130.03;33.97;;;-2.90;99.90;;;;;;5031473;28;20052;-78
2021/12/10 20:36:56;;;;;;;127.13;32.73;;;-3.00;99.90;;;;;;5032050;28;20049;-78
2021/12/10 20:39:41;;;;;;;121.07;33.97;;;-3.10;99.90;;;;;;5032039;28;20052;-78
2021/12/10 20:42:15;;;;;;;158.10;37.40;;;-3.00;99.90;;;;;;5032037;28;20045;-76
2021/12/10 20:44:48;;;;;;;549.97;53.23;;;-2.80;99.90;;;;;;5036794;28;20491;-78
2021/12/10 20:47:24;;;;;;;513.33;52.00;;;-2.80;99.90;;;;;;5068397;28;20045;-78
2021/12/10 20:50:22;;;;;;;322.00;46.80;;;-2.90;99.90;;;;;;5051772;28;20329;-76
2021/12/10 20:52:55;;;;;;;437.13;49.00;;;-3.10;99.90;;;;;;5068146;28;20041;-77
2021/12/10 20:55:37;;;;;;;261.50;37.67;;;-3.20;99.90;;;;;;5051819;28;20099;-76
2021/12/10 20:58:13;;;;;;;161.20;32.17;;;-3.20;99.90;;;;;;5035039;28;20083;-78
2021/12/10 21:01:05;;;;;;;107.63;29.30;;;-3.30;99.90;;;;;;5051561;28;20064;-76
2021/12/10 21:03:36;;;;;;;103.90;28.60;;;-3.40;99.90;;;;;;5051391;28;20080;-78
2021/12/10 21:06:12;;;;;;;82.50;28.70;;;-3.50;99.90;;;;;;5035233;28;20518;-78
2021/12/10 21:08:45;;;;;;;110.57;36.93;;;-3.50;99.90;;;;;;5034841;28;20128;-78
2021/12/10 21:11:19;;;;;;;;;;;-3.40;99.90;;;;;;5051901;28;20045;-76
2021/12/10 21:13:47;;;;;;;;;;;-3.40;99.90;;;;;;5051825;28;19927;-76
2021/12/10 21:16:20;;;;;;;141.23;41.43;;;-3.40;99.90;;;;;;5051701;28;19970;-76
2021/12/10 21:18:57;;;;;;;;;;;-3.20;99.90;;;;;;5035198;28;20044;-76
2021/12/10 21:21:28;;;;;;;96.73;29.90;;;-3.10;99.90;;;;;;5051320;28;19935;-76
2021/12/10 21:24:09;;;;;;;90.20;31.13;;;-3.20;99.90;;;;;;5034643;28;20506;-78
2021/12/10 21:27:03;;;;;;;99.67;33.00;;;-3.30;99.90;;;;;;5051254;28;20041;-76
2021/12/10 21:29:37;;;;;;;82.87;29.37;;;-3.50;99.90;;;;;;5051399;28;20048;-78
2021/12/10 21:32:08;;;;;;;80.13;28.07;;;-3.60;99.90;;;;;;5048583;28;20045;-76
2021/12/10 21:34:40;;;;;;;118.80;37.67;;;-3.60;99.90;;;;;;5031737;28;20438;-79
2021/12/10 21:39:40;;;;;;;115.70;39.90;;;-3.70;99.90;;;;;;5031509;28;20057;-77
2021/12/10 21:42:15;;;;;;;117.90;39.57;;;-3.80;99.90;;;;;;5031477;28;20042;-76
2021/12/10 21:44:55;;;;;;;112.23;39.87;;;-3.70;99.90;;;;;;5031079;28;20037;-77
2021/12/10 21:47:28;;;;;;;114.77;41.90;;;-3.60;99.90;;;;;;5035443;28;20034;-78
2021/12/10 21:49:58;;;;;;;120.90;45.40;;;-3.40;99.90;;;;;;5019018;28;20504;-76
2021/12/10 21:52:32;;;;;;;103.83;38.50;;;-3.20;99.90;;;;;;5019068;28;20369;-77
2021/12/10 21:55:01;;;;;;;107.17;37.17;;;-3.20;99.90;;;;;;5035013;28;20042;-77
2021/12/10 21:57:34;;;;;;;108.20;38.60;;;-3.20;99.90;;;;;;5035096;28;20048;-77
2021/12/10 22:00:12;;;;;;;167.10;75.15;;;-3.30;99.90;;;;;;5035339;28;20522;-78
2021/12/10 22:02:40;;;;;;;98.20;37.17;;;-3.30;99.90;;;;;;5034927;28;20045;-79
2021/12/10 22:05:26;;;;;;;118.90;39.67;;;-3.30;99.90;;;;;;5034860;28;20048;-78
2021/12/10 22:08:02;;;;;;;94.83;35.83;;;-3.30;99.90;;;;;;5018541;28;20400;-78
2021/12/10 22:10:47;;;;;;;87.37;34.07;;;-3.30;99.90;;;;;;5035108;28;20395;-76
2021/12/10 22:13:33;;;;;;;96.00;35.17;;;-3.40;99.90;;;;;;5034925;28;20550;-77
2021/12/10 22:16:10;;;;;;;101.33;32.53;;;-3.40;99.90;;;;;;5035034;28;20081;-79
2021/12/10 22:18:43;;;;;;;76.80;31.23;;;-3.40;99.90;;;;;;5034839;28;20484;-78
2021/12/10 22:21:14;;;;;;;89.05;30.42;;;-3.50;99.90;;;;;;5018211;28;20048;-78
2021/12/10 22:23:44;;;;;;;79.30;27.90;;;-3.60;99.90;;;;;;5034469;28;20057;-76
2021/12/10 22:26:13;;;;;;;83.87;27.33;;;-3.60;99.90;;;;;;5034462;28;20049;-76
2021/12/10 22:28:44;;;;;;;88.93;31.23;;;-3.60;99.90;;;;;;5034470;28;20060;-77
2021/12/10 22:31:34;;;;;;;68.43;25.90;;;-3.70;99.90;;;;;;5034329;28;20053;-78
2021/12/10 22:34:10;;;;;;;80.93;27.47;;;-3.70;99.90;;;;;;5034607;28;20484;-76
2021/12/10 22:36:47;;;;;;;109.93;32.50;;;-3.70;99.90;;;;;;5034348;28;20079;-78
2021/12/10 22:39:21;;;;;;;97.80;29.30;;;-3.70;99.90;;;;;;5034295;28;20168;-78
2021/12/10 22:41:56;;;;;;;122.32;28.77;;;-3.70;99.90;;;;;;5017946;28;20148;-78
2021/12/10 22:44:26;;;;;;;276.77;32.73;;;-3.80;99.90;;;;;;5036246;28;20042;-78
2021/12/10 22:46:56;;;;;;;202.07;33.80;;;-3.90;99.90;;;;;;5054376;28;20044;-76
2021/12/10 22:49:33;;;;;;;166.97;27.50;;;-4.00;99.90;;;;;;5053987;28;20187;-78
2021/12/10 22:52:03;;;;;;;126.77;24.50;;;-4.10;99.90;;;;;;5054072;28;20127;-77
2021/12/10 22:54:34;;;;;;;175.47;23.67;;;-4.20;99.90;;;;;;5037413;28;20499;-78
2021/12/10 22:57:05;;;;;;;356.40;29.80;;;-4.20;99.90;;;;;;5037149;28;20506;-78
2021/12/10 22:59:38;;;;;;;347.20;29.47;;;-4.30;99.90;;;;;;5053879;28;20049;-78
2021/12/10 23:02:12;;;;;;;386.30;30.30;;;-4.40;99.90;;;;;;5070528;28;20041;-78
2021/12/10 23:04:46;;;;;;;;;;;-4.40;99.90;;;;;;5054023;28;20049;-78
2021/12/10 23:10:16;;;;;;;241.70;25.93;;;-4.40;99.90;;;;;;5053804;28;20127;-78
2021/12/10 23:12:47;;;;;;;270.13;30.40;;;-4.40;99.90;;;;;;5036896;28;20057;-78
2021/12/10 23:15:25;;;;;;;272.27;27.33;;;-4.30;99.90;;;;;;5070653;28;20080;-76
2021/12/10 23:18:14;;;;;;;153.33;18.47;;;-4.30;99.90;;;;;;5069966;28;20099;-76
2021/12/10 23:20:39;;;;;;;241.57;22.77;;;-4.20;99.90;;;;;;5037144;28;20056;-78
2021/12/10 23:23:05;;;;;;;188.73;22.10;;;-4.10;99.90;;;;;;5053164;28;20491;-76
2021/12/10 23:25:41;;;;;;;133.77;20.87;;;-4.10;99.90;;;;;;5036433;28;20049;-76
2021/12/10 23:28:14;;;;;;;103.13;21.33;;;-4.00;99.90;;;;;;5033249;28;20045;-76
2021/12/10 23:31:00;;;;;;;77.47;17.67;;;-3.90;99.90;;;;;;5033339;28;20045;-76
2021/12/10 23:33:40;;;;;;;47.57;18.33;;;-3.90;99.90;;;;;;5033451;28;20372;-77
2021/12/10 23:36:13;;;;;;;38.83;17.80;;;-3.90;99.90;;;;;;5033244;28;20052;-76
2021/12/10 23:38:51;;;;;;;80.38;20.10;;;-3.90;99.90;;;;;;5033275;28;20076;-78
2021/12/10 23:41:45;;;;;;;74.53;20.93;;;-3.90;99.90;;;;;;5016611;28;20050;-76
2021/12/10 23:44:23;;;;;;;84.53;22.00;;;-3.80;99.90;;;;;;5025392;28;20053;-76
2021/12/10 23:46:55;;;;;;;91.83;22.13;;;-3.80;99.90;;;;;;5053271;28;20123;-76
2021/12/10 23:49:27;;;;;;;78.73;22.33;;;-3.70;99.90;;;;;;5069648;28;20160;-76
2021/12/10 23:52:04;;;;;;;58.92;21.52;;;-3.60;99.90;;;;;;5053129;28;20044;-78
2021/12/10 23:54:42;;;;;;;48.23;19.70;;;-3.60;99.90;;;;;;5069932;28;20480;-78
2021/12/10 23:57:15;;;;;;;39.67;19.57;;;-3.60;99.90;;;;;;5044964;28;20052;-79
2021/12/10 23:59:41;;;;;;;53.87;21.80;;;-3.50;99.90;;;;;;5039446;28;20053;-77
